Time,TemperatureF,DewpointF,PressureIn,WindDirection,WindDirectionDegrees,WindSpeedMPH,WindSpeedGustMPH,Humidity,HourlyPrecipIn,Conditions,Clouds,dailyrainin,SoftwareType,DateUTC
2013-06-02 00:01:00,45.9,29.2,0.00,NNW,327,2.7,3.6,52,0.00,,,0.00,VWS V13.01,2013-06-02 05:01:00,
2013-06-02 00:06:00,45.9,29.2,0.00,NNE,31,2.7,2.7,52,0.00,,,0.00,VWS V13.01,2013-06-02 05:06:00,
2013-06-02 00:11:00,45.7,29.5,0.00,NNW,328,2.7,2.7,53,0.00,,,0.00,VWS V13.01,2013-06-02 05:11:00,
2013-06-02 00:16:00,45.7,29.5,0.00,NW,325,2.7,3.6,53,0.00,,,0.00,VWS V13.01,2013-06-02 05:16:00,
2013-06-02 00:21:00,45.5,29.4,0.00,NNW,340,2.7,4.9,53,0.00,,,0.00,VWS V13.01,2013-06-02 05:21:00,
2013-06-02 00:26:00,45.5,29.4,0.00,NNW,340,8.7,8.7,53,0.00,,,0.00,VWS V13.01,2013-06-02 05:26:00,
2013-06-02 00:31:00,45.3,29.2,0.00,North,0,3.1,4.9,53,0.00,,,0.00,VWS V13.01,2013-06-02 05:31:00,
2013-06-02 00:36:00,45.3,28.3,0.00,NNW,330,3.6,5.8,51,0.00,,,0.00,VWS V13.01,2013-06-02 05:36:00,
2013-06-02 00:41:00,45.3,28.3,0.00,North,357,2.7,5.8,51,0.00,,,0.00,VWS V13.01,2013-06-02 05:41:00,
2013-06-02 00:46:00,45.1,27.6,0.00,NNW,332,2.7,7.6,50,0.00,,,0.00,VWS V13.01,2013-06-02 05:46:00,
2013-06-02 00:51:00,45.1,27.6,0.00,North,4,3.6,8.7,50,0.00,,,0.00,VWS V13.01,2013-06-02 05:51:00,
2013-06-02 00:56:00,45.1,27.6,0.00,North,353,4.9,8.1,50,0.00,,,0.00,VWS V13.01,2013-06-02 05:56:00,
2013-06-02 01:01:00,45.1,27.6,0.00,NNW,345,7.6,7.6,50,0.00,,,0.00,VWS V13.01,2013-06-02 06:01:00,
2013-06-02 01:06:00,45.1,27.6,0.00,North,10,2.2,4.0,50,0.00,,,0.00,VWS V13.01,2013-06-02 06:06:00,
2013-06-02 01:11:00,45.0,27.5,0.00,NNW,339,0.0,2.2,50,0.00,,,0.00,VWS V13.01,2013-06-02 06:11:00,
2013-06-02 01:16:00,45.0,27.9,0.00,NW,316,3.1,4.0,51,0.00,,,0.00,VWS V13.01,2013-06-02 06:16:00,
2013-06-02 01:21:00,45.0,28.4,0.00,North,353,4.0,6.3,52,0.00,,,0.00,VWS V13.01,2013-06-02 06:21:00,
2013-06-02 01:26:00,44.6,28.1,0.00,NNW,328,0.0,2.7,52,0.00,,,0.00,VWS V13.01,2013-06-02 06:26:00,
2013-06-02 01:31:00,44.1,28.5,0.00,NNE,18,0.0,2.7,54,0.00,,,0.00,VWS V13.01,2013-06-02 06:31:00,
2013-06-02 01:36:00,43.7,28.6,0.00,NNW,329,3.1,3.1,55,0.00,,,0.00,VWS V13.01,2013-06-02 06:36:00,
2013-06-02 01:41:00,43.5,29.3,0.00,NNW,328,2.2,4.0,57,0.00,,,0.00,VWS V13.01,2013-06-02 06:41:00,
2013-06-02 01:46:00,43.3,30.0,0.00,North,2,0.0,4.9,59,0.00,,,0.00,VWS V13.01,2013-06-02 06:46:00,
2013-06-02 01:51:00,43.3,30.4,0.00,NNW,340,2.7,4.9,60,0.00,,,0.00,VWS V13.01,2013-06-02 06:51:00,
2013-06-02 01:56:00,43.3,30.8,0.00,NNW,341,0.0,3.1,61,0.00,,,0.00,VWS V13.01,2013-06-02 06:56:00,
2013-06-02 02:01:00,43.3,31.2,0.00,NNW,328,3.1,3.6,62,0.00,,,0.00,VWS V13.01,2013-06-02 07:01:00,
2013-06-02 02:06:00,43.5,32.2,0.00,NNW,348,2.2,3.1,64,0.00,,,0.00,VWS V13.01,2013-06-02 07:06:00,
2013-06-02 02:11:00,43.5,33.3,0.00,North,0,3.1,4.9,67,0.00,,,0.00,VWS V13.01,2013-06-02 07:11:00,
2013-06-02 02:16:00,43.5,33.7,0.00,NNW,328,2.7,3.1,68,0.00,,,0.00,VWS V13.01,2013-06-02 07:16:00,
2013-06-02 02:21:00,43.5,34.0,0.00,NW,319,3.6,3.6,69,0.00,,,0.00,VWS V13.01,2013-06-02 07:21:00,
2013-06-02 02:26:00,43.3,34.2,0.00,NNW,342,0.0,3.6,70,0.00,,,0.00,VWS V13.01,2013-06-02 07:26:00,
2013-06-02 02:31:00,43.3,34.2,0.00,WNW,294,3.6,4.9,70,0.00,,,0.00,VWS V13.01,2013-06-02 07:31:00,
2013-06-02 02:36:00,43.2,34.4,0.00,NNW,329,0.0,3.1,71,0.00,,,0.00,VWS V13.01,2013-06-02 07:36:00,
2013-06-02 02:41:00,43.0,34.2,0.00,NNW,328,2.7,3.6,71,0.00,,,0.00,VWS V13.01,2013-06-02 07:41:00,
2013-06-02 02:46:00,43.0,34.2,0.00,NNW,346,3.6,3.6,71,0.00,,,0.00,VWS V13.01,2013-06-02 07:46:00,
2013-06-02 02:51:00,43.2,34.8,0.00,NNE,15,6.3,12.8,72,0.00,,,0.00,VWS V13.01,2013-06-02 07:51:00,
2013-06-02 02:56:00,43.2,35.1,0.00,NNW,343,3.6,5.8,73,0.00,,,0.00,VWS V13.01,2013-06-02 07:56:00,
2013-06-02 03:01:00,43.3,35.3,0.00,NW,320,0.0,2.2,73,0.00,,,0.00,VWS V13.01,2013-06-02 08:01:00,
2013-06-02 03:06:00,43.3,35.3,0.00,WNW,290,3.6,4.0,73,0.00,,,0.00,VWS V13.01,2013-06-02 08:06:00,
2013-06-02 03:11:00,43.2,35.1,0.00,North,0,3.1,3.1,73,0.00,,,0.00,VWS V13.01,2013-06-02 08:11:00,
2013-06-02 03:16:00,43.0,34.6,0.00,North,353,3.6,5.8,72,0.00,,,0.00,VWS V13.01,2013-06-02 08:16:00,
2013-06-02 03:21:00,42.8,34.4,0.00,NNW,336,5.4,7.2,72,0.00,,,0.00,VWS V13.01,2013-06-02 08:21:00,
2013-06-02 03:26:00,42.8,34.1,0.00,North,353,3.1,3.1,71,0.00,,,0.00,VWS V13.01,2013-06-02 08:26:00,
2013-06-02 03:31:00,42.8,34.1,0.00,NW,324,2.7,4.0,71,0.00,,,0.00,VWS V13.01,2013-06-02 08:31:00,
2013-06-02 03:36:00,42.6,33.9,0.00,North,9,5.4,5.4,71,0.00,,,0.00,VWS V13.01,2013-06-02 08:36:00,
2013-06-02 03:41:00,42.4,33.0,0.00,WNW,295,0.0,7.2,69,0.00,,,0.00,VWS V13.01,2013-06-02 08:41:00,
2013-06-02 03:46:00,42.3,32.5,0.00,NW,324,5.8,5.8,68,0.00,,,0.00,VWS V13.01,2013-06-02 08:46:00,
2013-06-02 03:51:00,42.3,32.1,0.00,NNW,328,0.0,4.0,67,0.00,,,0.00,VWS V13.01,2013-06-02 08:51:00,
2013-06-02 03:56:00,42.1,31.9,0.00,NNW,331,3.1,3.1,67,0.00,,,0.00,VWS V13.01,2013-06-02 08:56:00,
2013-06-02 04:01:00,41.7,31.2,0.00,North,349,3.1,6.3,66,0.00,,,0.00,VWS V13.01,2013-06-02 09:01:00,
2013-06-02 04:06:00,41.7,31.2,0.00,NW,318,2.2,2.2,66,0.00,,,0.00,VWS V13.01,2013-06-02 09:06:00,
2013-06-02 04:11:00,41.7,31.2,0.00,NW,306,2.7,2.7,66,0.00,,,0.00,VWS V13.01,2013-06-02 09:11:00,
2013-06-02 04:16:00,41.7,31.2,0.00,NNW,329,2.2,3.6,66,0.00,,,0.00,VWS V13.01,2013-06-02 09:16:00,
2013-06-02 04:21:00,41.7,31.2,0.00,NNW,328,0.0,2.2,66,0.00,,,0.00,VWS V13.01,2013-06-02 09:21:00,
2013-06-02 04:26:00,41.7,31.2,0.00,NW,305,3.1,3.1,66,0.00,,,0.00,VWS V13.01,2013-06-02 09:26:00,
2013-06-02 04:31:00,41.9,31.8,0.00,WNW,301,0.0,0.0,67,0.00,,,0.00,VWS V13.01,2013-06-02 09:31:00,
2013-06-02 04:36:00,41.9,31.8,0.00,NNW,332,2.2,2.2,67,0.00,,,0.00,VWS V13.01,2013-06-02 09:36:00,
2013-06-02 04:41:00,41.9,31.8,0.00,NW,304,0.0,0.0,67,0.00,,,0.00,VWS V13.01,2013-06-02 09:41:00,
2013-06-02 04:46:00,42.1,31.9,0.00,NW,312,0.0,0.0,67,0.00,,,0.00,VWS V13.01,2013-06-02 09:46:00,
2013-06-02 04:51:00,41.9,31.8,0.00,NNW,331,0.0,0.0,67,0.00,,,0.00,VWS V13.01,2013-06-02 09:51:00,
2013-06-02 04:56:00,42.1,31.9,0.00,NNW,331,0.0,0.0,67,0.00,,,0.00,VWS V13.01,2013-06-02 09:56:00,
2013-06-02 05:01:00,42.1,31.9,0.00,NNW,335,0.0,2.2,67,0.00,,,0.00,VWS V13.01,2013-06-02 10:01:00,
2013-06-02 05:06:00,42.1,31.9,0.00,NNW,335,0.0,0.0,67,0.00,,,0.00,VWS V13.01,2013-06-02 10:06:00,
2013-06-02 05:11:00,42.3,32.1,0.00,NW,316,0.0,0.0,67,0.00,,,0.00,VWS V13.01,2013-06-02 10:11:00,
2013-06-02 05:16:00,42.3,32.1,0.00,NNW,336,2.7,2.7,67,0.00,,,0.00,VWS V13.01,2013-06-02 10:16:00,
2013-06-02 05:21:00,42.4,32.3,0.00,NW,318,0.0,0.0,67,0.00,,,0.00,VWS V13.01,2013-06-02 10:21:00,
2013-06-02 05:26:00,42.6,32.4,0.00,North,350,0.0,0.0,67,0.00,,,0.00,VWS V13.01,2013-06-02 10:26:00,
2013-06-02 05:31:00,42.8,32.6,0.00,NW,317,3.6,3.6,67,0.00,,,0.00,VWS V13.01,2013-06-02 10:31:00,
2013-06-02 05:36:00,43.0,33.2,0.00,NW,315,0.0,2.7,68,0.00,,,0.00,VWS V13.01,2013-06-02 10:36:00,
2013-06-02 05:41:00,43.2,33.3,0.00,NW,312,2.7,2.7,68,0.00,,,0.00,VWS V13.01,2013-06-02 10:41:00,
2013-06-02 05:46:00,43.3,33.5,0.00,NNW,336,0.0,2.2,68,0.00,,,0.00,VWS V13.01,2013-06-02 10:46:00,
2013-06-02 05:51:00,43.5,33.7,0.00,NW,304,4.9,4.9,68,0.00,,,0.00,VWS V13.01,2013-06-02 10:51:00,
2013-06-02 05:56:00,43.5,32.5,0.00,NW,312,4.5,4.9,65,0.00,,,0.00,VWS V13.01,2013-06-02 10:56:00,
2013-06-02 06:01:00,43.5,31.4,0.00,North,357,2.7,2.7,62,0.00,,,0.00,VWS V13.01,2013-06-02 11:01:00,
2013-06-02 06:06:00,43.7,30.3,0.00,NNE,24,0.0,3.1,59,0.00,,,0.00,VWS V13.01,2013-06-02 11:06:00,
2013-06-02 06:11:00,43.7,29.5,0.00,NW,318,2.7,4.0,57,0.00,,,0.00,VWS V13.01,2013-06-02 11:11:00,
2013-06-02 06:16:00,43.7,29.0,0.00,North,3,2.2,2.2,56,0.00,,,0.00,VWS V13.01,2013-06-02 11:16:00,
2013-06-02 06:21:00,43.7,29.0,0.00,NNW,340,5.8,5.8,56,0.00,,,0.00,VWS V13.01,2013-06-02 11:21:00,
2013-06-02 06:26:00,43.7,28.6,0.00,NW,319,5.4,5.4,55,0.00,,,0.00,VWS V13.01,2013-06-02 11:26:00,
2013-06-02 06:31:00,43.9,28.3,0.00,NNW,346,2.7,2.7,54,0.00,,,0.00,VWS V13.01,2013-06-02 11:31:00,
2013-06-02 06:36:00,44.1,28.5,0.00,NW,307,2.7,3.1,54,0.00,,,0.00,VWS V13.01,2013-06-02 11:36:00,
2013-06-02 06:41:00,44.1,28.5,0.00,NNW,335,2.7,3.6,54,0.00,,,0.00,VWS V13.01,2013-06-02 11:41:00,
2013-06-02 06:46:00,44.2,28.7,0.00,North,357,4.0,6.3,54,0.00,,,0.00,VWS V13.01,2013-06-02 11:46:00,
2013-06-02 06:51:00,44.2,28.7,0.00,WNW,286,0.0,3.1,54,0.00,,,0.00,VWS V13.01,2013-06-02 11:51:00,
2013-06-02 06:56:00,44.2,28.2,0.00,NE,56,4.0,7.6,53,0.00,,,0.00,VWS V13.01,2013-06-02 11:56:00,
2013-06-02 07:01:00,44.4,28.4,0.00,NNE,33,6.3,6.3,53,0.00,,,0.00,VWS V13.01,2013-06-02 12:01:00,
2013-06-02 07:06:00,44.4,27.9,0.00,NNW,340,2.2,2.2,52,0.00,,,0.00,VWS V13.01,2013-06-02 12:06:00,
2013-06-02 07:11:00,44.6,27.6,0.00,NNW,346,0.0,2.7,51,0.00,,,0.00,VWS V13.01,2013-06-02 12:11:00,
2013-06-02 07:16:00,44.6,27.6,0.00,NE,41,3.1,5.8,51,0.00,,,0.00,VWS V13.01,2013-06-02 12:16:00,
2013-06-02 07:21:00,44.6,27.6,0.00,NNW,331,4.0,4.0,51,0.00,,,0.00,VWS V13.01,2013-06-02 12:21:00,
2013-06-02 07:26:00,44.6,27.6,0.00,NNW,341,3.1,3.6,51,0.00,,,0.00,VWS V13.01,2013-06-02 12:26:00,
2013-06-02 07:31:00,44.4,27.9,0.00,WNW,301,2.7,2.7,52,0.00,,,0.00,VWS V13.01,2013-06-02 12:31:00,
2013-06-02 07:36:00,44.4,27.9,0.00,NW,314,0.0,0.0,52,0.00,,,0.00,VWS V13.01,2013-06-02 12:36:00,
2013-06-02 07:41:00,44.4,27.9,0.00,NNW,329,6.3,6.3,52,0.00,,,0.00,VWS V13.01,2013-06-02 12:41:00,
2013-06-02 07:46:00,44.2,26.3,0.00,North,357,5.4,5.4,49,0.00,,,0.00,VWS V13.01,2013-06-02 12:46:00,
2013-06-02 07:51:00,44.2,26.3,0.00,North,353,10.1,10.1,49,0.00,,,0.00,VWS V13.01,2013-06-02 12:51:00,
2013-06-02 07:56:00,44.2,26.3,0.00,NW,315,3.6,5.8,49,0.00,,,0.00,VWS V13.01,2013-06-02 12:56:00,
2013-06-02 08:01:00,44.4,26.5,0.00,North,357,0.0,2.7,49,0.00,,,0.00,VWS V13.01,2013-06-02 13:01:00,
2013-06-02 08:06:00,44.4,26.0,0.00,North,0,9.6,9.6,48,0.00,,,0.00,VWS V13.01,2013-06-02 13:06:00,
2013-06-02 08:11:00,44.4,25.5,0.00,NW,324,3.6,4.9,47,0.00,,,0.00,VWS V13.01,2013-06-02 13:11:00,
2013-06-02 08:16:00,44.6,25.6,0.00,North,8,4.9,6.3,47,0.00,,,0.00,VWS V13.01,2013-06-02 13:16:00,
2013-06-02 08:21:00,44.6,24.6,0.00,North,357,4.0,4.0,45,0.00,,,0.00,VWS V13.01,2013-06-02 13:21:00,
2013-06-02 08:26:00,44.6,25.1,0.00,North,357,5.8,8.3,46,0.00,,,0.00,VWS V13.01,2013-06-02 13:26:00,
2013-06-02 08:31:00,44.6,25.1,0.00,NE,46,4.9,6.3,46,0.00,,,0.00,VWS V13.01,2013-06-02 13:31:00,
2013-06-02 08:36:00,44.8,25.3,0.00,WNW,287,0.0,2.7,46,0.00,,,0.00,VWS V13.01,2013-06-02 13:36:00,
2013-06-02 08:41:00,45.0,26.0,0.00,NNW,335,0.0,2.7,47,0.00,,,0.00,VWS V13.01,2013-06-02 13:41:00,
2013-06-02 08:46:00,45.1,26.1,0.00,North,353,3.6,3.6,47,0.00,,,0.00,VWS V13.01,2013-06-02 13:46:00,
2013-06-02 08:51:00,45.1,25.6,0.00,NNW,333,2.7,2.7,46,0.00,,,0.00,VWS V13.01,2013-06-02 13:51:00,
2013-06-02 08:56:00,45.1,25.6,0.00,NNW,332,0.0,0.0,46,0.00,,,0.00,VWS V13.01,2013-06-02 13:56:00,
2013-06-02 09:01:00,45.1,25.6,0.00,NW,322,5.8,6.3,46,0.00,,,0.00,VWS V13.01,2013-06-02 14:01:00,
2013-06-02 09:07:00,45.3,25.8,0.00,North,3,2.7,2.7,46,0.00,,,0.00,VWS V13.01,2013-06-02 14:07:00,
2013-06-02 09:12:00,45.3,25.8,0.00,NNW,338,3.1,5.4,46,0.00,,,0.00,VWS V13.01,2013-06-02 14:12:00,
2013-06-02 09:17:00,45.5,25.9,0.00,NNW,328,2.2,2.7,46,0.00,,,0.00,VWS V13.01,2013-06-02 14:17:00,
2013-06-02 09:22:00,45.5,26.5,0.00,North,11,2.7,3.6,47,0.00,,,0.00,VWS V13.01,2013-06-02 14:22:00,
2013-06-02 09:27:00,45.5,25.4,0.00,North,7,3.6,3.6,45,0.00,,,0.00,VWS V13.01,2013-06-02 14:27:00,
2013-06-02 09:32:00,45.7,25.6,0.00,WNW,288,3.1,3.1,45,0.00,,,0.00,VWS V13.01,2013-06-02 14:32:00,
2013-06-02 09:37:00,45.9,25.7,0.00,North,353,0.0,0.0,45,0.00,,,0.00,VWS V13.01,2013-06-02 14:37:00,
2013-06-02 09:42:00,45.9,25.7,0.00,NW,324,3.1,5.4,45,0.00,,,0.00,VWS V13.01,2013-06-02 14:42:00,
2013-06-02 09:47:00,45.9,24.6,0.00,North,357,3.1,4.0,43,0.00,,,0.00,VWS V13.01,2013-06-02 14:47:00,
2013-06-02 09:52:00,45.9,24.6,0.00,WNW,285,3.1,3.1,43,0.00,,,0.00,VWS V13.01,2013-06-02 14:52:00,
2013-06-02 09:57:00,46.2,26.1,0.00,WNW,295,0.0,0.0,45,0.00,,,0.00,VWS V13.01,2013-06-02 14:57:00,
2013-06-02 10:02:00,46.4,25.1,0.00,North,6,0.0,0.0,43,0.00,,,0.00,VWS V13.01,2013-06-02 15:02:00,
2013-06-02 10:07:00,46.8,24.9,0.00,North,350,3.1,4.9,42,0.00,,,0.00,VWS V13.01,2013-06-02 15:07:00,
2013-06-02 10:12:00,46.8,24.9,0.00,NW,304,4.0,5.4,42,0.00,,,0.00,VWS V13.01,2013-06-02 15:12:00,
2013-06-02 10:16:00,47.1,25.8,0.00,NNW,336,4.0,6.3,43,0.00,,,0.00,VWS V13.01,2013-06-02 15:16:00,
2013-06-02 10:22:00,47.1,25.2,0.00,North,353,4.0,4.0,42,0.00,,,0.00,VWS V13.01,2013-06-02 15:22:00,
2013-06-02 10:26:00,46.9,24.5,0.00,North,350,6.3,6.3,41,0.00,,,0.00,VWS V13.01,2013-06-02 15:26:00,
2013-06-02 10:32:00,46.9,25.1,0.00,NW,326,2.2,3.1,42,0.00,,,0.00,VWS V13.01,2013-06-02 15:32:00,
2013-06-02 10:37:00,46.9,26.2,0.00,NNW,335,2.7,2.7,44,0.00,,,0.00,VWS V13.01,2013-06-02 15:37:00,
2013-06-02 10:42:00,47.1,25.8,0.00,NW,309,4.9,4.9,43,0.00,,,0.00,VWS V13.01,2013-06-02 15:42:00,
2013-06-02 10:47:00,46.9,25.1,0.00,North,353,4.0,4.0,42,0.00,,,0.00,VWS V13.01,2013-06-02 15:47:00,
2013-06-02 10:52:00,47.1,25.8,0.00,NW,310,2.7,3.1,43,0.00,,,0.00,VWS V13.01,2013-06-02 15:52:00,
2013-06-02 10:57:00,47.5,26.1,0.00,NW,324,2.7,5.4,43,0.00,,,0.00,VWS V13.01,2013-06-02 15:57:00,
2013-06-02 11:02:00,47.8,26.4,0.00,NW,307,3.6,5.4,43,0.00,,,0.00,VWS V13.01,2013-06-02 16:02:00,
2013-06-02 11:07:00,48.7,27.3,0.00,NE,51,2.7,3.6,43,0.00,,,0.00,VWS V13.01,2013-06-02 16:07:00,
2013-06-02 11:12:00,50.0,26.6,0.00,NW,316,5.8,6.3,40,0.00,,,0.00,VWS V13.01,2013-06-02 16:12:00,
2013-06-02 11:17:00,49.6,25.7,0.00,NNW,335,2.7,2.7,39,0.00,,,0.00,VWS V13.01,2013-06-02 16:17:00,
2013-06-02 11:22:00,50.0,26.0,0.00,NE,42,0.0,4.9,39,0.00,,,0.00,VWS V13.01,2013-06-02 16:22:00,
2013-06-02 11:27:00,49.8,25.2,0.00,North,4,0.0,0.0,38,0.00,,,0.00,VWS V13.01,2013-06-02 16:27:00,
2013-06-02 11:31:00,49.8,25.2,0.00,North,357,3.6,3.6,38,0.00,,,0.00,VWS V13.01,2013-06-02 16:31:00,
2013-06-02 11:37:00,50.0,25.4,0.00,North,353,2.7,2.7,38,0.00,,,0.00,VWS V13.01,2013-06-02 16:37:00,
2013-06-02 11:41:00,50.2,24.9,0.00,NNW,333,2.2,2.7,37,0.00,,,0.00,VWS V13.01,2013-06-02 16:41:00,
2013-06-02 11:47:00,50.4,25.1,0.00,NW,323,3.6,3.6,37,0.00,,,0.00,VWS V13.01,2013-06-02 16:47:00,
2013-06-02 11:52:00,50.5,25.9,0.00,North,353,5.4,5.4,38,0.00,,,0.00,VWS V13.01,2013-06-02 16:52:00,
2013-06-02 11:57:00,50.5,25.2,0.00,NW,322,4.9,4.9,37,0.00,,,0.00,VWS V13.01,2013-06-02 16:57:00,
2013-06-02 12:02:00,50.9,26.2,0.00,NNE,16,0.0,0.0,38,0.00,,,0.00,VWS V13.01,2013-06-02 17:02:00,
2013-06-02 12:07:00,52.0,26.5,0.00,NW,313,5.4,5.8,37,0.00,,,0.00,VWS V13.01,2013-06-02 17:07:00,
2013-06-02 12:12:00,52.2,26.0,0.00,NNW,332,4.9,4.9,36,0.00,,,0.00,VWS V13.01,2013-06-02 17:12:00,
2013-06-02 12:17:00,52.2,25.4,0.00,WNW,301,2.2,3.1,35,0.00,,,0.00,VWS V13.01,2013-06-02 17:17:00,
2013-06-02 12:22:00,52.5,24.3,0.00,WNW,296,4.9,4.9,33,0.00,,,0.00,VWS V13.01,2013-06-02 17:22:00,
2013-06-02 12:27:00,52.9,26.0,0.00,East,79,5.8,5.8,35,0.00,,,0.00,VWS V13.01,2013-06-02 17:27:00,
2013-06-02 12:32:00,53.1,24.0,0.00,WNW,300,3.6,6.3,32,0.00,,,0.00,VWS V13.01,2013-06-02 17:32:00,
2013-06-02 12:37:00,53.4,26.5,0.00,NW,316,3.6,5.4,35,0.00,,,0.00,VWS V13.01,2013-06-02 17:37:00,
2013-06-02 12:42:00,53.4,26.5,0.00,WNW,300,4.0,4.0,35,0.00,,,0.00,VWS V13.01,2013-06-02 17:42:00,
2013-06-02 12:47:00,53.6,24.5,0.00,NE,43,2.2,3.6,32,0.00,,,0.00,VWS V13.01,2013-06-02 17:47:00,
2013-06-02 12:52:00,54.1,22.6,0.00,NNW,330,6.3,7.6,29,0.00,,,0.00,VWS V13.01,2013-06-02 17:52:00,
2013-06-02 12:57:00,54.0,23.2,0.00,ENE,62,2.7,4.0,30,0.00,,,0.00,VWS V13.01,2013-06-02 17:57:00,
2013-06-02 13:02:00,54.5,24.5,0.00,SE,139,0.0,0.0,31,0.00,,,0.00,VWS V13.01,2013-06-02 18:02:00,
2013-06-02 13:07:00,56.1,26.7,0.00,ENE,70,0.0,0.0,32,0.00,,,0.00,VWS V13.01,2013-06-02 18:07:00,
2013-06-02 13:12:00,56.1,24.3,0.00,NW,321,2.2,2.2,29,0.00,,,0.00,VWS V13.01,2013-06-02 18:12:00,
2013-06-02 13:17:00,56.3,24.5,0.00,SSE,147,2.7,4.0,29,0.00,,,0.00,VWS V13.01,2013-06-02 18:17:00,
2013-06-02 13:22:00,55.8,23.2,0.00,WNW,293,0.0,0.0,28,0.00,,,0.00,VWS V13.01,2013-06-02 18:22:00,
2013-06-02 13:27:00,55.6,23.0,0.00,WNW,293,2.7,4.0,28,0.00,,,0.00,VWS V13.01,2013-06-02 18:27:00,
2013-06-02 13:32:00,55.9,23.3,0.00,NNW,328,7.6,7.6,28,0.00,,,0.00,VWS V13.01,2013-06-02 18:32:00,
2013-06-02 13:37:00,55.9,23.3,0.00,NNW,332,3.1,3.1,28,0.00,,,0.00,VWS V13.01,2013-06-02 18:37:00,
2013-06-02 13:42:00,56.5,23.8,0.00,NNW,341,0.0,0.0,28,0.00,,,0.00,VWS V13.01,2013-06-02 18:42:00,
2013-06-02 13:47:00,57.0,24.3,0.00,NNE,32,0.0,2.7,28,0.00,,,0.00,VWS V13.01,2013-06-02 18:47:00,
2013-06-02 13:52:00,57.6,24.7,0.00,North,353,0.0,3.1,28,0.00,,,0.00,VWS V13.01,2013-06-02 18:52:00,
2013-06-02 13:57:00,57.9,24.2,0.00,NNW,333,3.1,3.1,27,0.00,,,0.00,VWS V13.01,2013-06-02 18:57:00,
2013-06-02 14:02:00,57.9,24.2,0.00,WNW,292,2.7,2.7,27,0.00,,,0.00,VWS V13.01,2013-06-02 19:02:00,
2013-06-02 14:07:00,58.1,24.3,0.00,NNW,329,0.0,2.7,27,0.00,,,0.00,VWS V13.01,2013-06-02 19:07:00,
2013-06-02 14:12:00,58.3,23.6,0.00,North,0,2.7,5.4,26,0.00,,,0.00,VWS V13.01,2013-06-02 19:12:00,
2013-06-02 14:17:00,58.1,23.4,0.00,ESE,123,3.6,3.6,26,0.00,,,0.00,VWS V13.01,2013-06-02 19:17:00,
2013-06-02 14:22:00,58.5,23.7,0.00,NNE,32,5.8,5.8,26,0.00,,,0.00,VWS V13.01,2013-06-02 19:22:00,
2013-06-02 14:27:00,58.6,23.9,0.00,South,184,2.7,5.8,26,0.00,,,0.00,VWS V13.01,2013-06-02 19:27:00,
2013-06-02 14:32:00,59.0,24.2,0.00,North,6,4.0,8.1,26,0.00,,,0.00,VWS V13.01,2013-06-02 19:32:00,
2013-06-02 14:37:00,59.4,23.6,0.00,South,181,5.4,5.4,25,0.00,,,0.00,VWS V13.01,2013-06-02 19:37:00,
2013-06-02 14:42:00,59.2,23.4,0.00,NNW,331,3.6,5.4,25,0.00,,,0.00,VWS V13.01,2013-06-02 19:42:00,
2013-06-02 14:47:00,58.8,24.0,0.00,ESE,115,0.0,0.0,26,0.00,,,0.00,VWS V13.01,2013-06-02 19:47:00,
2013-06-02 14:52:00,59.2,23.4,0.00,NNW,339,5.4,5.4,25,0.00,,,0.00,VWS V13.01,2013-06-02 19:52:00,
2013-06-02 14:57:00,59.2,23.4,0.00,WNW,293,2.2,4.0,25,0.00,,,0.00,VWS V13.01,2013-06-02 19:57:00,
2013-06-02 15:02:00,59.0,23.2,0.00,NW,320,2.2,3.6,25,0.00,,,0.00,VWS V13.01,2013-06-02 20:02:00,
2013-06-02 15:07:00,59.2,23.4,0.00,North,353,5.8,5.8,25,0.00,,,0.00,VWS V13.01,2013-06-02 20:07:00,
2013-06-02 15:12:00,59.4,23.6,0.00,NNW,339,3.6,4.0,25,0.00,,,0.00,VWS V13.01,2013-06-02 20:12:00,
2013-06-02 15:17:00,59.5,23.7,0.00,WNW,302,2.7,3.1,25,0.00,,,0.00,VWS V13.01,2013-06-02 20:17:00,
2013-06-02 15:22:00,59.7,23.9,0.00,NE,52,0.0,3.6,25,0.00,,,0.00,VWS V13.01,2013-06-02 20:22:00,
2013-06-02 15:27:00,60.1,24.2,0.00,NW,323,3.1,3.6,25,0.00,,,0.00,VWS V13.01,2013-06-02 20:27:00,
2013-06-02 15:32:00,60.3,24.3,0.00,North,5,5.4,6.3,25,0.00,,,0.00,VWS V13.01,2013-06-02 20:32:00,
2013-06-02 15:37:00,60.4,24.5,0.00,NW,311,2.2,3.1,25,0.00,,,0.00,VWS V13.01,2013-06-02 20:37:00,
2013-06-02 15:42:00,60.6,24.6,0.00,NNW,330,4.0,5.8,25,0.00,,,0.00,VWS V13.01,2013-06-02 20:42:00,
2013-06-02 15:47:00,60.3,24.3,0.00,NW,319,2.7,3.6,25,0.00,,,0.00,VWS V13.01,2013-06-02 20:47:00,
2013-06-02 15:52:00,60.3,24.3,0.00,NNE,20,3.6,8.1,25,0.00,,,0.00,VWS V13.01,2013-06-02 20:52:00,
2013-06-02 15:57:00,60.1,24.2,0.00,North,353,3.6,3.6,25,0.00,,,0.00,VWS V13.01,2013-06-02 20:57:00,
2013-06-02 16:02:00,60.3,24.3,0.00,WNW,302,3.6,7.6,25,0.00,,,0.00,VWS V13.01,2013-06-02 21:02:00,
2013-06-02 16:07:00,60.4,24.5,0.00,NW,305,0.0,3.6,25,0.00,,,0.00,VWS V13.01,2013-06-02 21:07:00,
2013-06-02 16:12:00,60.4,24.5,0.00,NNW,333,0.0,3.1,25,0.00,,,0.00,VWS V13.01,2013-06-02 21:12:00,
2013-06-02 16:17:00,60.4,24.5,0.00,North,10,3.1,3.1,25,0.00,,,0.00,VWS V13.01,2013-06-02 21:17:00,
2013-06-02 16:22:00,60.4,24.5,0.00,NNW,334,4.0,5.4,25,0.00,,,0.00,VWS V13.01,2013-06-02 21:22:00,
2013-06-02 16:27:00,60.4,24.5,0.00,NW,320,3.1,4.9,25,0.00,,,0.00,VWS V13.01,2013-06-02 21:27:00,
2013-06-02 16:32:00,60.4,24.5,0.00,WNW,295,2.7,3.1,25,0.00,,,0.00,VWS V13.01,2013-06-02 21:32:00,
2013-06-02 16:37:00,60.6,24.6,0.00,NNW,341,0.0,0.0,25,0.00,,,0.00,VWS V13.01,2013-06-02 21:37:00,
2013-06-02 16:42:00,60.8,23.8,0.00,NW,316,3.1,5.8,24,0.00,,,0.00,VWS V13.01,2013-06-02 21:42:00,
2013-06-02 16:47:00,61.0,24.9,0.00,NW,319,2.7,5.4,25,0.00,,,0.00,VWS V13.01,2013-06-02 21:47:00,
2013-06-02 16:52:00,61.0,24.0,0.00,NNW,345,2.2,3.6,24,0.00,,,0.00,VWS V13.01,2013-06-02 21:52:00,
2013-06-02 16:57:00,61.2,24.1,0.00,NW,313,4.0,4.0,24,0.00,,,0.00,VWS V13.01,2013-06-02 21:57:00,
2013-06-02 17:02:00,61.0,24.0,0.00,NW,319,0.0,0.0,24,0.00,,,0.00,VWS V13.01,2013-06-02 22:02:00,
2013-06-02 17:07:00,61.2,24.1,0.00,NW,319,5.4,5.4,24,0.00,,,0.00,VWS V13.01,2013-06-02 22:07:00,
2013-06-02 17:12:00,61.3,24.3,0.00,NNW,338,3.1,5.4,24,0.00,,,0.00,VWS V13.01,2013-06-02 22:12:00,
2013-06-02 17:17:00,61.3,24.3,0.00,NNW,336,0.0,3.1,24,0.00,,,0.00,VWS V13.01,2013-06-02 22:17:00,
2013-06-02 17:22:00,61.2,24.1,0.00,NW,326,6.3,6.3,24,0.00,,,0.00,VWS V13.01,2013-06-02 22:22:00,
2013-06-02 17:27:00,61.3,24.3,0.00,WNW,294,3.1,8.3,24,0.00,,,0.00,VWS V13.01,2013-06-02 22:27:00,
2013-06-02 17:32:00,61.3,24.3,0.00,North,353,5.4,5.4,24,0.00,,,0.00,VWS V13.01,2013-06-02 22:32:00,
2013-06-02 17:37:00,61.3,24.3,0.00,NE,39,0.0,2.7,24,0.00,,,0.00,VWS V13.01,2013-06-02 22:37:00,
2013-06-02 17:42:00,61.2,24.1,0.00,NW,323,3.1,4.0,24,0.00,,,0.00,VWS V13.01,2013-06-02 22:42:00,
2013-06-02 17:47:00,61.5,24.4,0.00,NW,308,5.4,5.4,24,0.00,,,0.00,VWS V13.01,2013-06-02 22:47:00,
2013-06-02 17:52:00,61.3,24.3,0.00,NNW,343,2.7,2.7,24,0.00,,,0.00,VWS V13.01,2013-06-02 22:52:00,
2013-06-02 17:57:00,61.2,24.1,0.00,NNW,341,3.1,3.1,24,0.00,,,0.00,VWS V13.01,2013-06-02 22:57:00,
2013-06-02 18:02:00,61.3,24.3,0.00,North,9,4.9,5.8,24,0.00,,,0.00,VWS V13.01,2013-06-02 23:02:00,
2013-06-02 18:07:00,61.5,24.4,0.00,NW,317,4.9,4.9,24,0.00,,,0.00,VWS V13.01,2013-06-02 23:07:00,
2013-06-02 18:12:00,61.5,24.4,0.00,WNW,287,0.0,0.0,24,0.00,,,0.00,VWS V13.01,2013-06-02 23:12:00,
2013-06-02 18:17:00,61.3,24.3,0.00,NW,315,3.6,5.8,24,0.00,,,0.00,VWS V13.01,2013-06-02 23:17:00,
2013-06-02 18:22:00,61.3,24.3,0.00,NNW,333,3.6,3.6,24,0.00,,,0.00,VWS V13.01,2013-06-02 23:22:00,
2013-06-02 18:27:00,61.3,24.3,0.00,WNW,300,0.0,0.0,24,0.00,,,0.00,VWS V13.01,2013-06-02 23:27:00,
2013-06-02 18:32:00,61.2,24.1,0.00,North,350,0.0,2.2,24,0.00,,,0.00,VWS V13.01,2013-06-02 23:32:00,
2013-06-02 18:37:00,61.0,24.0,0.00,NW,306,3.1,3.1,24,0.00,,,0.00,VWS V13.01,2013-06-02 23:37:00,
2013-06-02 18:42:00,61.0,24.0,0.00,North,353,3.6,3.6,24,0.00,,,0.00,VWS V13.01,2013-06-02 23:42:00,
2013-06-02 18:47:00,61.0,24.0,0.00,NW,310,0.0,0.0,24,0.00,,,0.00,VWS V13.01,2013-06-02 23:47:00,
2013-06-02 18:52:00,61.0,24.0,0.00,NW,311,3.1,3.1,24,0.00,,,0.00,VWS V13.01,2013-06-02 23:52:00,
2013-06-02 18:57:00,61.0,24.0,0.00,North,353,3.6,3.6,24,0.00,,,0.00,VWS V13.01,2013-06-02 23:57:00,
2013-06-02 19:02:00,61.0,24.0,0.00,NW,316,0.0,0.0,24,0.00,,,0.00,VWS V13.01,2013-06-03 00:02:00,
2013-06-02 19:07:00,61.0,24.0,0.00,WNW,299,3.6,5.4,24,0.00,,,0.00,VWS V13.01,2013-06-03 00:07:00,
2013-06-02 19:12:00,61.0,24.0,0.00,WNW,302,0.0,0.0,24,0.00,,,0.00,VWS V13.01,2013-06-03 00:12:00,
2013-06-02 19:17:00,60.8,23.8,0.00,NW,312,2.2,2.7,24,0.00,,,0.00,VWS V13.01,2013-06-03 00:17:00,
2013-06-02 19:22:00,60.4,24.5,0.00,NW,316,0.0,0.0,25,0.00,,,0.00,VWS V13.01,2013-06-03 00:22:00,
2013-06-02 19:27:00,60.4,24.5,0.00,NW,316,0.0,0.0,25,0.00,,,0.00,VWS V13.01,2013-06-03 00:27:00,
2013-06-02 19:32:00,60.3,24.3,0.00,NW,316,0.0,0.0,25,0.00,,,0.00,VWS V13.01,2013-06-03 00:32:00,
2013-06-02 19:37:00,60.1,24.2,0.00,NW,316,0.0,0.0,25,0.00,,,0.00,VWS V13.01,2013-06-03 00:37:00,
2013-06-02 19:43:00,59.9,24.0,0.00,NW,316,0.0,0.0,25,0.00,,,0.00,VWS V13.01,2013-06-03 00:43:00,
2013-06-02 19:48:00,59.5,23.7,0.00,NW,316,0.0,0.0,25,0.00,,,0.00,VWS V13.01,2013-06-03 00:48:00,
2013-06-02 19:53:00,59.2,23.4,0.00,NW,316,0.0,0.0,25,0.00,,,0.00,VWS V13.01,2013-06-03 00:53:00,
2013-06-02 19:58:00,58.6,23.9,0.00,NW,316,0.0,0.0,26,0.00,,,0.00,VWS V13.01,2013-06-03 00:58:00,
2013-06-02 20:03:00,58.1,23.4,0.00,NW,316,0.0,0.0,26,0.00,,,0.00,VWS V13.01,2013-06-03 01:03:00,
2013-06-02 20:08:00,57.2,23.5,0.00,NW,316,0.0,0.0,27,0.00,,,0.00,VWS V13.01,2013-06-03 01:08:00,
2013-06-02 20:13:00,56.5,24.6,0.00,NW,316,0.0,0.0,29,0.00,,,0.00,VWS V13.01,2013-06-03 01:13:00,
2013-06-02 20:18:00,55.9,25.0,0.00,NW,316,0.0,0.0,30,0.00,,,0.00,VWS V13.01,2013-06-03 01:18:00,
2013-06-02 20:23:00,55.4,26.0,0.00,NW,316,0.0,0.0,32,0.00,,,0.00,VWS V13.01,2013-06-03 01:23:00,
2013-06-02 20:28:00,54.7,26.2,0.00,NW,316,0.0,0.0,33,0.00,,,0.00,VWS V13.01,2013-06-03 01:28:00,
2013-06-02 20:33:00,54.3,27.3,0.00,NW,316,0.0,0.0,35,0.00,,,0.00,VWS V13.01,2013-06-03 01:33:00,
2013-06-02 20:38:00,54.0,27.6,0.00,NW,316,0.0,0.0,36,0.00,,,0.00,VWS V13.01,2013-06-03 01:38:00,
2013-06-02 20:43:00,53.4,27.8,0.00,NW,316,0.0,0.0,37,0.00,,,0.00,VWS V13.01,2013-06-03 01:43:00,
2013-06-02 20:48:00,53.1,27.5,0.00,NW,316,0.0,0.0,37,0.00,,,0.00,VWS V13.01,2013-06-03 01:48:00,
2013-06-02 20:53:00,52.9,28.0,0.00,NW,316,0.0,0.0,38,0.00,,,0.00,VWS V13.01,2013-06-03 01:53:00,
2013-06-02 20:58:00,52.3,28.1,0.00,NW,316,0.0,0.0,39,0.00,,,0.00,VWS V13.01,2013-06-03 01:58:00,
2013-06-02 21:03:00,51.8,28.3,0.00,NW,316,0.0,0.0,40,0.00,,,0.00,VWS V13.01,2013-06-03 02:03:00,
2013-06-02 21:08:00,51.4,29.7,0.00,NW,316,0.0,0.0,43,0.00,,,0.00,VWS V13.01,2013-06-03 02:08:00,
2013-06-02 21:13:00,51.1,30.0,0.00,NW,316,0.0,0.0,44,0.00,,,0.00,VWS V13.01,2013-06-03 02:13:00,
2013-06-02 21:18:00,50.9,30.3,0.00,NW,316,0.0,0.0,45,0.00,,,0.00,VWS V13.01,2013-06-03 02:18:00,
2013-06-02 21:23:00,50.5,30.5,0.00,NW,316,0.0,0.0,46,0.00,,,0.00,VWS V13.01,2013-06-03 02:23:00,
2013-06-02 21:28:00,50.2,30.2,0.00,NW,316,0.0,0.0,46,0.00,,,0.00,VWS V13.01,2013-06-03 02:28:00,
2013-06-02 21:33:00,49.8,30.4,0.00,NW,316,0.0,0.0,47,0.00,,,0.00,VWS V13.01,2013-06-03 02:33:00,
2013-06-02 21:38:00,49.6,30.8,0.00,NW,316,0.0,0.0,48,0.00,,,0.00,VWS V13.01,2013-06-03 02:38:00,
2013-06-02 21:43:00,49.3,31.0,0.00,NW,316,0.0,0.0,49,0.00,,,0.00,VWS V13.01,2013-06-03 02:43:00,
2013-06-02 21:48:00,49.1,30.8,0.00,NW,316,0.0,0.0,49,0.00,,,0.00,VWS V13.01,2013-06-03 02:48:00,
2013-06-02 21:53:00,48.9,31.1,0.00,NW,316,0.0,0.0,50,0.00,,,0.00,VWS V13.01,2013-06-03 02:53:00,
2013-06-02 21:58:00,48.7,31.4,0.00,NW,316,0.0,0.0,51,0.00,,,0.00,VWS V13.01,2013-06-03 02:58:00,
2013-06-02 22:03:00,48.6,31.8,0.00,NW,316,0.0,0.0,52,0.00,,,0.00,VWS V13.01,2013-06-03 03:03:00,
2013-06-02 22:08:00,48.2,31.9,0.00,NW,316,0.0,0.0,53,0.00,,,0.00,VWS V13.01,2013-06-03 03:08:00,
2013-06-02 22:13:00,47.8,32.0,0.00,NW,316,0.0,0.0,54,0.00,,,0.00,VWS V13.01,2013-06-03 03:13:00,
2013-06-02 22:17:00,47.7,32.3,0.00,NW,316,0.0,0.0,55,0.00,,,0.00,VWS V13.01,2013-06-03 03:17:00,
2013-06-02 22:23:00,47.7,32.8,0.00,NW,316,0.0,0.0,56,0.00,,,0.00,VWS V13.01,2013-06-03 03:23:00,
2013-06-02 22:27:00,47.5,33.0,0.00,NW,316,0.0,0.0,57,0.00,,,0.00,VWS V13.01,2013-06-03 03:27:00,
2013-06-02 22:32:00,47.3,32.8,0.00,NW,316,0.0,0.0,57,0.00,,,0.00,VWS V13.01,2013-06-03 03:32:00,
2013-06-02 22:37:00,47.1,33.1,0.00,NW,316,0.0,0.0,58,0.00,,,0.00,VWS V13.01,2013-06-03 03:37:00,
2013-06-02 22:42:00,46.9,33.0,0.00,NW,316,0.0,0.0,58,0.00,,,0.00,VWS V13.01,2013-06-03 03:42:00,
2013-06-02 22:47:00,46.8,33.2,0.00,NW,316,0.0,0.0,59,0.00,,,0.00,VWS V13.01,2013-06-03 03:47:00,
2013-06-02 22:52:00,46.8,33.6,0.00,NW,316,0.0,0.0,60,0.00,,,0.00,VWS V13.01,2013-06-03 03:52:00,
2013-06-02 22:57:00,46.6,33.9,0.00,NW,316,0.0,0.0,61,0.00,,,0.00,VWS V13.01,2013-06-03 03:57:00,
2013-06-02 23:01:00,46.4,33.7,0.00,NW,316,0.0,0.0,61,0.00,,,0.00,VWS V13.01,2013-06-03 04:01:00,
2013-06-02 23:06:00,46.4,34.1,0.00,NW,316,0.0,0.0,62,0.00,,,0.00,VWS V13.01,2013-06-03 04:06:00,
2013-06-02 23:11:00,46.4,34.5,0.00,NW,316,0.0,0.0,63,0.00,,,0.00,VWS V13.01,2013-06-03 04:11:00,
2013-06-02 23:16:00,46.4,34.9,0.00,NW,316,0.0,0.0,64,0.00,,,0.00,VWS V13.01,2013-06-03 04:16:00,
2013-06-02 23:21:00,46.2,35.1,0.00,NW,316,0.0,0.0,65,0.00,,,0.00,VWS V13.01,2013-06-03 04:21:00,
2013-06-02 23:26:00,46.0,35.3,0.00,NW,316,0.0,0.0,66,0.00,,,0.00,VWS V13.01,2013-06-03 04:26:00,
2013-06-02 23:31:00,45.9,35.2,0.00,NW,316,0.0,0.0,66,0.00,,,0.00,VWS V13.01,2013-06-03 04:31:00,
2013-06-02 23:36:00,45.9,35.5,0.00,NW,316,0.0,0.0,67,0.00,,,0.00,VWS V13.01,2013-06-03 04:36:00,
2013-06-02 23:42:00,45.9,35.9,0.00,NW,316,0.0,0.0,68,0.00,,,0.00,VWS V13.01,2013-06-03 04:42:00,
2013-06-02 23:47:00,45.7,35.7,0.00,NW,316,0.0,0.0,68,0.00,,,0.00,VWS V13.01,2013-06-03 04:47:00,
2013-06-02 23:52:00,45.5,35.9,0.00,NW,316,0.0,0.0,69,0.00,,,0.00,VWS V13.01,2013-06-03 04:52:00,
2013-06-02 23:57:00,45.5,36.3,0.00,NW,316,0.0,0.0,70,0.00,,,0.00,VWS V13.01,2013-06-03 04:57:00,